sensor_id;sensor_type;location;lat;lon;timestamp;pressure;altitude;pressure_sealevel;temperature;humidity
61697;BME280;47610;52.252;20.922;2023-11-19T00:02:08;100899.98;;;0.88;100.00
61697;BME280;47610;52.252;20.922;2023-11-19T00:07:12;100903.49;;;0.88;100.00
61697;BME280;47610;52.252;20.922;2023-11-19T00:12:15;100902.40;;;0.88;100.00
61697;BME280;47610;52.252;20.922;2023-11-19T00:17:18;100913.84;;;0.89;100.00
61697;BME280;47610;52.252;20.922;2023-11-19T00:22:21;100910.88;;;0.95;100.00
61697;BME280;47610;52.252;20.922;2023-11-19T00:27:24;100894.30;;;0.92;100.00
61697;BME280;47610;52.252;20.922;2023-11-19T00:32:27;100891.28;;;0.95;100.00
61697;BME280;47610;52.252;20.922;2023-11-19T00:37:31;100890.41;;;0.97;100.00
61697;BME280;47610;52.252;20.922;2023-11-19T00:42:34;100873.85;;;0.95;100.00
61697;BME280;47610;52.252;20.922;2023-11-19T00:47:37;100869.73;;;0.96;100.00
61697;BME280;47610;52.252;20.922;2023-11-19T00:52:40;100859.07;;;0.93;100.00
61697;BME280;47610;52.252;20.922;2023-11-19T00:57:43;100857.17;;;0.98;100.00
61697;BME280;47610;52.252;20.922;2023-11-19T01:02:46;100834.06;;;0.98;100.00
61697;BME280;47610;52.252;20.922;2023-11-19T01:07:50;100827.23;;;0.99;100.00
61697;BME280;47610;52.252;20.922;2023-11-19T01:12:53;100820.17;;;0.95;100.00
61697;BME280;47610;52.252;20.922;2023-11-19T01:17:56;100814.15;;;0.94;100.00
61697;BME280;47610;52.252;20.922;2023-11-19T01:22:59;100801.63;;;0.92;100.00
61697;BME280;47610;52.252;20.922;2023-11-19T01:28:02;100795.09;;;0.89;100.00
61697;BME280;47610;52.252;20.922;2023-11-19T01:33:06;100792.65;;;0.85;100.00
61697;BME280;47610;52.252;20.922;2023-11-19T01:38:09;100805.55;;;0.90;100.00
61697;BME280;47610;52.252;20.922;2023-11-19T01:43:12;100807.70;;;0.94;100.00
61697;BME280;47610;52.252;20.922;2023-11-19T01:48:15;100787.98;;;0.94;100.00
61697;BME280;47610;52.252;20.922;2023-11-19T01:53:18;100780.83;;;0.92;100.00
61697;BME280;47610;52.252;20.922;2023-11-19T01:58:21;100768.20;;;0.94;100.00
61697;BME280;47610;52.252;20.922;2023-11-19T02:03:25;100763.96;;;0.98;100.00
61697;BME280;47610;52.252;20.922;2023-11-19T02:08:29;100758.20;;;0.98;100.00
61697;BME280;47610;52.252;20.922;2023-11-19T02:13:32;100755.25;;;0.97;100.00
61697;BME280;47610;52.252;20.922;2023-11-19T02:18:35;100747.48;;;0.97;100.00
61697;BME280;47610;52.252;20.922;2023-11-19T02:23:38;100735.71;;;0.92;100.00
61697;BME280;47610;52.252;20.922;2023-11-19T02:28:42;100737.11;;;0.99;100.00
61697;BME280;47610;52.252;20.922;2023-11-19T02:33:45;100733.80;;;1.06;100.00
61697;BME280;47610;52.252;20.922;2023-11-19T02:38:48;100720.48;;;1.10;100.00
61697;BME280;47610;52.252;20.922;2023-11-19T02:43:51;100720.61;;;1.20;100.00
61697;BME280;47610;52.252;20.922;2023-11-19T02:48:55;100721.45;;;1.25;100.00
61697;BME280;47610;52.252;20.922;2023-11-19T02:53:58;100709.73;;;1.32;100.00
61697;BME280;47610;52.252;20.922;2023-11-19T02:59:01;100690.29;;;1.41;100.00
61697;BME280;47610;52.252;20.922;2023-11-19T03:04:05;100675.48;;;1.46;100.00
61697;BME280;47610;52.252;20.922;2023-11-19T03:09:08;100671.30;;;1.55;100.00
61697;BME280;47610;52.252;20.922;2023-11-19T03:14:11;100667.26;;;1.41;100.00
61697;BME280;47610;52.252;20.922;2023-11-19T03:19:14;100666.25;;;1.33;100.00
61697;BME280;47610;52.252;20.922;2023-11-19T03:24:17;100646.39;;;1.38;100.00
61697;BME280;47610;52.252;20.922;2023-11-19T03:29:20;100642.80;;;1.46;100.00
61697;BME280;47610;52.252;20.922;2023-11-19T03:34:23;100636.59;;;1.41;100.00
61697;BME280;47610;52.252;20.922;2023-11-19T03:39:26;100635.08;;;1.33;100.00
61697;BME280;47610;52.252;20.922;2023-11-19T03:44:31;100635.71;;;1.34;100.00
61697;BME280;47610;52.252;20.922;2023-11-19T03:49:34;100626.12;;;1.39;100.00
61697;BME280;47610;52.252;20.922;2023-11-19T03:54:37;100620.43;;;1.42;100.00
61697;BME280;47610;52.252;20.922;2023-11-19T03:59:40;100605.20;;;1.42;100.00
61697;BME280;47610;52.252;20.922;2023-11-19T04:04:44;100592.04;;;1.50;100.00
61697;BME280;47610;52.252;20.922;2023-11-19T04:09:47;100588.12;;;1.49;100.00
61697;BME280;47610;52.252;20.922;2023-11-19T04:14:50;100575.52;;;1.44;100.00
61697;BME280;47610;52.252;20.922;2023-11-19T04:19:53;100565.47;;;1.41;100.00
61697;BME280;47610;52.252;20.922;2023-11-19T04:24:56;100559.71;;;1.41;100.00
61697;BME280;47610;52.252;20.922;2023-11-19T04:29:59;100552.61;;;1.43;100.00
61697;BME280;47610;52.252;20.922;2023-11-19T04:35:03;100541.89;;;1.44;100.00
61697;BME280;47610;52.252;20.922;2023-11-19T04:40:07;100536.09;;;1.43;100.00
61697;BME280;47610;52.252;20.922;2023-11-19T04:45:11;100534.75;;;1.39;100.00
61697;BME280;47610;52.252;20.922;2023-11-19T04:50:14;100528.79;;;1.38;100.00
61697;BME280;47610;52.252;20.922;2023-11-19T04:55:18;100526.38;;;1.36;100.00
61697;BME280;47610;52.252;20.922;2023-11-19T05:00:21;100518.09;;;1.22;100.00
61697;BME280;47610;52.252;20.922;2023-11-19T05:05:24;100515.98;;;0.98;100.00
61697;BME280;47610;52.252;20.922;2023-11-19T05:10:27;100509.04;;;0.91;100.00
61697;BME280;47610;52.252;20.922;2023-11-19T05:15:30;100494.82;;;0.89;100.00
61697;BME280;47610;52.252;20.922;2023-11-19T05:20:34;100488.48;;;0.81;100.00
61697;BME280;47610;52.252;20.922;2023-11-19T05:25:37;100483.48;;;0.89;100.00
61697;BME280;47610;52.252;20.922;2023-11-19T05:30:41;100477.09;;;0.96;100.00
61697;BME280;47610;52.252;20.922;2023-11-19T05:35:44;100475.52;;;0.94;100.00
61697;BME280;47610;52.252;20.922;2023-11-19T05:40:47;100470.55;;;0.90;100.00
61697;BME280;47610;52.252;20.922;2023-11-19T05:45:50;100468.13;;;0.94;100.00
61697;BME280;47610;52.252;20.922;2023-11-19T05:50:54;100465.00;;;0.95;100.00
61697;BME280;47610;52.252;20.922;2023-11-19T05:55:57;100456.58;;;0.93;100.00
61697;BME280;47610;52.252;20.922;2023-11-19T06:01:00;100460.25;;;0.83;100.00
61697;BME280;47610;52.252;20.922;2023-11-19T06:06:04;100456.52;;;0.69;100.00
61697;BME280;47610;52.252;20.922;2023-11-19T06:11:07;100462.77;;;0.62;100.00
61697;BME280;47610;52.252;20.922;2023-11-19T06:16:10;100452.47;;;0.59;100.00
61697;BME280;47610;52.252;20.922;2023-11-19T06:21:13;100454.85;;;0.59;100.00
61697;BME280;47610;52.252;20.922;2023-11-19T06:26:17;100443.38;;;0.59;100.00
61697;BME280;47610;52.252;20.922;2023-11-19T06:31:20;100439.09;;;0.54;100.00
61697;BME280;47610;52.252;20.922;2023-11-19T06:36:23;100436.38;;;0.57;100.00
61697;BME280;47610;52.252;20.922;2023-11-19T06:41:26;100425.63;;;0.60;100.00
61697;BME280;47610;52.252;20.922;2023-11-19T06:46:29;100412.14;;;0.59;100.00
61697;BME280;47610;52.252;20.922;2023-11-19T06:51:33;100405.27;;;0.64;100.00
61697;BME280;47610;52.252;20.922;2023-11-19T06:56:36;100397.09;;;0.56;100.00
61697;BME280;47610;52.252;20.922;2023-11-19T07:01:39;100396.14;;;0.42;100.00
61697;BME280;47610;52.252;20.922;2023-11-19T07:06:42;100384.67;;;0.38;100.00
61697;BME280;47610;52.252;20.922;2023-11-19T07:11:45;100383.43;;;0.39;100.00
61697;BME280;47610;52.252;20.922;2023-11-19T07:16:49;100373.47;;;0.33;100.00
61697;BME280;47610;52.252;20.922;2023-11-19T07:21:52;100368.40;;;0.22;100.00
61697;BME280;47610;52.252;20.922;2023-11-19T07:26:55;100367.10;;;0.11;100.00
61697;BME280;47610;52.252;20.922;2023-11-19T07:31:58;100372.42;;;0.14;100.00
61697;BME280;47610;52.252;20.922;2023-11-19T07:37:01;100361.89;;;0.07;100.00
61697;BME280;47610;52.252;20.922;2023-11-19T07:42:05;100355.59;;;0.01;100.00
61697;BME280;47610;52.252;20.922;2023-11-19T07:47:08;100347.36;;;0.04;100.00
61697;BME280;47610;52.252;20.922;2023-11-19T07:52:11;100339.48;;;0.11;100.00
61697;BME280;47610;52.252;20.922;2023-11-19T07:57:14;100329.27;;;0.31;100.00
61697;BME280;47610;52.252;20.922;2023-11-19T08:02:18;100319.48;;;0.42;100.00
61697;BME280;47610;52.252;20.922;2023-11-19T08:07:21;100320.99;;;0.59;100.00
61697;BME280;47610;52.252;20.922;2023-11-19T08:12:24;100314.23;;;0.76;100.00
61697;BME280;47610;52.252;20.922;2023-11-19T08:17:27;100311.96;;;0.84;100.00
61697;BME280;47610;52.252;20.922;2023-11-19T08:22:30;100309.39;;;0.80;100.00
61697;BME280;47610;52.252;20.922;2023-11-19T08:27:34;100292.80;;;0.80;100.00
61697;BME280;47610;52.252;20.922;2023-11-19T08:32:37;100284.73;;;0.83;100.00
61697;BME280;47610;52.252;20.922;2023-11-19T08:37:40;100280.83;;;0.83;100.00
61697;BME280;47610;52.252;20.922;2023-11-19T08:42:43;100281.12;;;1.03;100.00
61697;BME280;47610;52.252;20.922;2023-11-19T08:47:46;100278.22;;;1.05;100.00
61697;BME280;47610;52.252;20.922;2023-11-19T08:52:49;100278.73;;;1.12;100.00
61697;BME280;47610;52.252;20.922;2023-11-19T08:57:53;100269.46;;;1.14;100.00
61697;BME280;47610;52.252;20.922;2023-11-19T09:02:56;100267.20;;;1.25;100.00
61697;BME280;47610;52.252;20.922;2023-11-19T09:07:59;100244.98;;;1.34;100.00
61697;BME280;47610;52.252;20.922;2023-11-19T09:13:02;100233.96;;;1.41;100.00
61697;BME280;47610;52.252;20.922;2023-11-19T09:18:06;100223.40;;;1.43;100.00
61697;BME280;47610;52.252;20.922;2023-11-19T09:23:09;100210.33;;;1.66;100.00
61697;BME280;47610;52.252;20.922;2023-11-19T09:28:12;100208.82;;;1.90;100.00
61697;BME280;47610;52.252;20.922;2023-11-19T09:33:15;100205.02;;;2.08;100.00
61697;BME280;47610;52.252;20.922;2023-11-19T09:38:18;100197.04;;;2.00;100.00
61697;BME280;47610;52.252;20.922;2023-11-19T09:43:21;100192.30;;;1.88;100.00
61697;BME280;47610;52.252;20.922;2023-11-19T09:48:26;100188.37;;;1.66;100.00
61697;BME280;47610;52.252;20.922;2023-11-19T09:53:28;100183.60;;;1.58;100.00
61697;BME280;47610;52.252;20.922;2023-11-19T09:58:31;100174.48;;;1.48;100.00
61697;BME280;47610;52.252;20.922;2023-11-19T10:03:35;100169.63;;;1.41;100.00
61697;BME280;47610;52.252;20.922;2023-11-19T10:08:39;100162.82;;;1.32;100.00
61697;BME280;47610;52.252;20.922;2023-11-19T10:13:43;100145.02;;;1.33;100.00
61697;BME280;47610;52.252;20.922;2023-11-19T10:18:47;100140.83;;;1.50;100.00
61697;BME280;47610;52.252;20.922;2023-11-19T10:23:52;100130.80;;;1.60;100.00
61697;BME280;47610;52.252;20.922;2023-11-19T10:28:56;100126.63;;;1.53;100.00
61697;BME280;47610;52.252;20.922;2023-11-19T10:33:59;100112.39;;;1.53;100.00
61697;BME280;47610;52.252;20.922;2023-11-19T10:39:03;100107.48;;;1.52;100.00
61697;BME280;47610;52.252;20.922;2023-11-19T10:44:06;100092.86;;;1.43;100.00
61697;BME280;47610;52.252;20.922;2023-11-19T10:49:09;100086.74;;;1.43;100.00
61697;BME280;47610;52.252;20.922;2023-11-19T10:54:15;100071.64;;;1.53;100.00
61697;BME280;47610;52.252;20.922;2023-11-19T10:59:22;100059.36;;;1.47;100.00
61697;BME280;47610;52.252;20.922;2023-11-19T11:04:26;100042.02;;;1.44;100.00
61697;BME280;47610;52.252;20.922;2023-11-19T11:09:32;100031.61;;;1.46;100.00
61697;BME280;47610;52.252;20.922;2023-11-19T11:14:38;100018.92;;;1.46;100.00
61697;BME280;47610;52.252;20.922;2023-11-19T11:19:43;100010.95;;;1.48;100.00
61697;BME280;47610;52.252;20.922;2023-11-19T11:25:06;99994.74;;;1.45;100.00
61697;BME280;47610;52.252;20.922;2023-11-19T11:30:26;99989.98;;;1.45;100.00
61697;BME280;47610;52.252;20.922;2023-11-19T11:35:41;99982.17;;;1.38;100.00
61697;BME280;47610;52.252;20.922;2023-11-19T11:41:18;99977.17;;;1.38;100.00
61697;BME280;47610;52.252;20.922;2023-11-19T11:52:03;99955.95;;;1.33;100.00
61697;BME280;47610;52.252;20.922;2023-11-19T11:57:10;99945.69;;;1.25;100.00
61697;BME280;47610;52.252;20.922;2023-11-19T12:02:14;99929.10;;;1.15;100.00
61697;BME280;47610;52.252;20.922;2023-11-19T12:07:19;99921.91;;;1.18;100.00
61697;BME280;47610;52.252;20.922;2023-11-19T12:12:26;99903.89;;;1.14;100.00
61697;BME280;47610;52.252;20.922;2023-11-19T12:17:46;99897.17;;;1.18;100.00
61697;BME280;47610;52.252;20.922;2023-11-19T12:22:50;99892.16;;;1.18;100.00
61697;BME280;47610;52.252;20.922;2023-11-19T12:27:54;99882.36;;;1.14;100.00
61697;BME280;47610;52.252;20.922;2023-11-19T12:32:57;99874.09;;;1.08;100.00
61697;BME280;47610;52.252;20.922;2023-11-19T12:38:00;99869.91;;;1.08;100.00
61697;BME280;47610;52.252;20.922;2023-11-19T12:43:03;99862.19;;;1.09;100.00
61697;BME280;47610;52.252;20.922;2023-11-19T12:48:07;99857.07;;;1.09;100.00
61697;BME280;47610;52.252;20.922;2023-11-19T12:53:09;99859.84;;;1.12;100.00
61697;BME280;47610;52.252;20.922;2023-11-19T12:58:29;99855.05;;;1.18;100.00
61697;BME280;47610;52.252;20.922;2023-11-19T13:03:33;99855.63;;;1.25;100.00
61697;BME280;47610;52.252;20.922;2023-11-19T13:08:40;99846.05;;;1.27;100.00
61697;BME280;47610;52.252;20.922;2023-11-19T13:13:57;99839.87;;;1.21;100.00
61697;BME280;47610;52.252;20.922;2023-11-19T13:19:00;99824.64;;;1.14;100.00
61697;BME280;47610;52.252;20.922;2023-11-19T13:24:03;99807.91;;;1.01;100.00
61697;BME280;47610;52.252;20.922;2023-11-19T13:29:07;99800.11;;;0.98;100.00
61697;BME280;47610;52.252;20.922;2023-11-19T13:34:10;99783.02;;;0.90;100.00
61697;BME280;47610;52.252;20.922;2023-11-19T13:39:13;99781.84;;;0.88;100.00
61697;BME280;47610;52.252;20.922;2023-11-19T13:44:16;99762.55;;;0.81;100.00
61697;BME280;47610;52.252;20.922;2023-11-19T13:49:19;99759.54;;;0.78;100.00
61697;BME280;47610;52.252;20.922;2023-11-19T13:54:22;99748.93;;;0.73;100.00
61697;BME280;47610;52.252;20.922;2023-11-19T13:59:25;99737.86;;;0.69;100.00
61697;BME280;47610;52.252;20.922;2023-11-19T14:04:29;99730.00;;;0.63;100.00
61697;BME280;47610;52.252;20.922;2023-11-19T14:09:32;99727.91;;;0.59;100.00
61697;BME280;47610;52.252;20.922;2023-11-19T14:14:35;99726.83;;;0.56;100.00
61697;BME280;47610;52.252;20.922;2023-11-19T14:19:38;99722.03;;;0.57;100.00
61697;BME280;47610;52.252;20.922;2023-11-19T14:24:41;99710.86;;;0.60;100.00
61697;BME280;47610;52.252;20.922;2023-11-19T14:29:45;99707.30;;;0.58;100.00
61697;BME280;47610;52.252;20.922;2023-11-19T14:34:48;99697.80;;;0.57;100.00
61697;BME280;47610;52.252;20.922;2023-11-19T14:39:51;99699.03;;;0.63;100.00
61697;BME280;47610;52.252;20.922;2023-11-19T14:44:54;99694.69;;;0.64;100.00
61697;BME280;47610;52.252;20.922;2023-11-19T14:49:58;99690.95;;;0.67;100.00
61697;BME280;47610;52.252;20.922;2023-11-19T14:55:01;99686.02;;;0.68;100.00
61697;BME280;47610;52.252;20.922;2023-11-19T15:00:05;99679.31;;;0.75;100.00
61697;BME280;47610;52.252;20.922;2023-11-19T15:05:09;99679.46;;;0.75;100.00
61697;BME280;47610;52.252;20.922;2023-11-19T15:10:12;99672.85;;;0.71;100.00
61697;BME280;47610;52.252;20.922;2023-11-19T15:15:16;99665.22;;;0.61;100.00
61697;BME280;47610;52.252;20.922;2023-11-19T15:20:19;99672.11;;;0.54;100.00
61697;BME280;47610;52.252;20.922;2023-11-19T15:25:22;99673.19;;;0.51;100.00
61697;BME280;47610;52.252;20.922;2023-11-19T15:30:25;99666.63;;;0.48;100.00
61697;BME280;47610;52.252;20.922;2023-11-19T15:35:29;99671.60;;;0.47;100.00
61697;BME280;47610;52.252;20.922;2023-11-19T15:40:32;99671.17;;;0.46;100.00
61697;BME280;47610;52.252;20.922;2023-11-19T15:45:35;99669.20;;;0.47;100.00
61697;BME280;47610;52.252;20.922;2023-11-19T15:50:38;99669.55;;;0.48;100.00
61697;BME280;47610;52.252;20.922;2023-11-19T15:55:41;99667.49;;;0.53;100.00
61697;BME280;47610;52.252;20.922;2023-11-19T16:00:44;99673.92;;;0.62;100.00
61697;BME280;47610;52.252;20.922;2023-11-19T16:05:48;99666.30;;;0.65;100.00
61697;BME280;47610;52.252;20.922;2023-11-19T16:10:51;99655.52;;;0.64;100.00
61697;BME280;47610;52.252;20.922;2023-11-19T16:15:54;99655.52;;;0.64;100.00
61697;BME280;47610;52.252;20.922;2023-11-19T16:20:57;99648.02;;;0.68;100.00
61697;BME280;47610;52.252;20.922;2023-11-19T16:26:00;99645.95;;;0.66;100.00
61697;BME280;47610;52.252;20.922;2023-11-19T16:31:03;99648.45;;;0.67;100.00
61697;BME280;47610;52.252;20.922;2023-11-19T16:36:08;99644.61;;;0.66;100.00
61697;BME280;47610;52.252;20.922;2023-11-19T16:41:10;99637.96;;;0.62;100.00
61697;BME280;47610;52.252;20.922;2023-11-19T16:46:13;99635.42;;;0.65;100.00
61697;BME280;47610;52.252;20.922;2023-11-19T16:51:16;99629.42;;;0.61;100.00
61697;BME280;47610;52.252;20.922;2023-11-19T16:56:19;99624.65;;;0.57;100.00
61697;BME280;47610;52.252;20.922;2023-11-19T17:01:22;99617.61;;;0.55;100.00
61697;BME280;47610;52.252;20.922;2023-11-19T17:06:26;99608.25;;;0.56;100.00
61697;BME280;47610;52.252;20.922;2023-11-19T17:11:29;99605.71;;;0.50;100.00
61697;BME280;47610;52.252;20.922;2023-11-19T17:16:32;99597.89;;;0.43;100.00
61697;BME280;47610;52.252;20.922;2023-11-19T17:21:35;99595.63;;;0.41;100.00
61697;BME280;47610;52.252;20.922;2023-11-19T17:26:38;99592.23;;;0.40;100.00
61697;BME280;47610;52.252;20.922;2023-11-19T17:31:41;99587.61;;;0.42;100.00
61697;BME280;47610;52.252;20.922;2023-11-19T17:36:44;99583.29;;;0.41;100.00
61697;BME280;47610;52.252;20.922;2023-11-19T17:41:47;99579.06;;;0.42;100.00
61697;BME280;47610;52.252;20.922;2023-11-19T17:46:50;99574.30;;;0.42;100.00
61697;BME280;47610;52.252;20.922;2023-11-19T17:51:54;99565.06;;;0.43;100.00
61697;BME280;47610;52.252;20.922;2023-11-19T17:56:57;99565.17;;;0.47;100.00
61697;BME280;47610;52.252;20.922;2023-11-19T18:02:00;99560.61;;;0.46;100.00
61697;BME280;47610;52.252;20.922;2023-11-19T18:07:03;99559.44;;;0.43;100.00
61697;BME280;47610;52.252;20.922;2023-11-19T18:12:07;99555.48;;;0.40;100.00
61697;BME280;47610;52.252;20.922;2023-11-19T18:17:11;99547.85;;;0.40;100.00
61697;BME280;47610;52.252;20.922;2023-11-19T18:22:14;99541.80;;;0.41;100.00
61697;BME280;47610;52.252;20.922;2023-11-19T18:27:17;99532.98;;;0.40;100.00
61697;BME280;47610;52.252;20.922;2023-11-19T18:32:20;99530.13;;;0.39;100.00
61697;BME280;47610;52.252;20.922;2023-11-19T18:37:23;99521.70;;;0.37;100.00
61697;BME280;47610;52.252;20.922;2023-11-19T18:42:26;99513.16;;;0.34;100.00
61697;BME280;47610;52.252;20.922;2023-11-19T18:47:29;99509.90;;;0.35;100.00
61697;BME280;47610;52.252;20.922;2023-11-19T18:52:34;99502.67;;;0.36;100.00
61697;BME280;47610;52.252;20.922;2023-11-19T18:57:37;99499.84;;;0.40;100.00
61697;BME280;47610;52.252;20.922;2023-11-19T19:02:40;99488.70;;;0.38;100.00
61697;BME280;47610;52.252;20.922;2023-11-19T19:07:43;99484.42;;;0.30;100.00
61697;BME280;47610;52.252;20.922;2023-11-19T19:12:46;99479.75;;;0.31;100.00
61697;BME280;47610;52.252;20.922;2023-11-19T19:17:50;99479.36;;;0.33;100.00
61697;BME280;47610;52.252;20.922;2023-11-19T19:22:53;99477.30;;;0.34;100.00
61697;BME280;47610;52.252;20.922;2023-11-19T19:27:57;99474.95;;;0.38;100.00
61697;BME280;47610;52.252;20.922;2023-11-19T19:33:00;99468.97;;;0.39;100.00
61697;BME280;47610;52.252;20.922;2023-11-19T19:38:03;99467.08;;;0.41;100.00
61697;BME280;47610;52.252;20.922;2023-11-19T19:43:06;99457.67;;;0.42;100.00
61697;BME280;47610;52.252;20.922;2023-11-19T19:48:09;99459.13;;;0.46;100.00
61697;BME280;47610;52.252;20.922;2023-11-19T19:53:12;99455.56;;;0.47;100.00
61697;BME280;47610;52.252;20.922;2023-11-19T19:58:16;99443.80;;;0.49;100.00
61697;BME280;47610;52.252;20.922;2023-11-19T20:03:19;99436.80;;;0.48;100.00
61697;BME280;47610;52.252;20.922;2023-11-19T20:08:22;99425.41;;;0.43;100.00
61697;BME280;47610;52.252;20.922;2023-11-19T20:13:25;99416.92;;;0.44;100.00
61697;BME280;47610;52.252;20.922;2023-11-19T20:18:28;99415.36;;;0.42;100.00
61697;BME280;47610;52.252;20.922;2023-11-19T20:23:31;99417.70;;;0.42;100.00
61697;BME280;47610;52.252;20.922;2023-11-19T20:28:35;99410.29;;;0.38;100.00
61697;BME280;47610;52.252;20.922;2023-11-19T20:33:38;99406.58;;;0.41;100.00
61697;BME280;47610;52.252;20.922;2023-11-19T20:38:41;99403.84;;;0.42;100.00
61697;BME280;47610;52.252;20.922;2023-11-19T20:43:44;99406.95;;;0.48;100.00
61697;BME280;47610;52.252;20.922;2023-11-19T20:48:47;99405.44;;;0.53;100.00
61697;BME280;47610;52.252;20.922;2023-11-19T20:53:51;99401.71;;;0.55;100.00
61697;BME280;47610;52.252;20.922;2023-11-19T20:58:54;99396.86;;;0.56;100.00
61697;BME280;47610;52.252;20.922;2023-11-19T21:03:57;99390.75;;;0.54;100.00
61697;BME280;47610;52.252;20.922;2023-11-19T21:09:00;99397.39;;;0.58;100.00
61697;BME280;47610;52.252;20.922;2023-11-19T21:14:03;99397.00;;;0.59;100.00
61697;BME280;47610;52.252;20.922;2023-11-19T21:19:07;99387.09;;;0.62;100.00
61697;BME280;47610;52.252;20.922;2023-11-19T21:24:10;99380.71;;;0.64;100.00
61697;BME280;47610;52.252;20.922;2023-11-19T21:29:13;99389.05;;;0.67;100.00
61697;BME280;47610;52.252;20.922;2023-11-19T21:34:16;99382.66;;;0.69;100.00
61697;BME280;47610;52.252;20.922;2023-11-19T21:39:19;99382.41;;;0.72;100.00
61697;BME280;47610;52.252;20.922;2023-11-19T21:44:23;99373.95;;;0.72;100.00
61697;BME280;47610;52.252;20.922;2023-11-19T21:49:26;99368.02;;;0.72;100.00
61697;BME280;47610;52.252;20.922;2023-11-19T21:54:29;99362.80;;;0.75;100.00
61697;BME280;47610;52.252;20.922;2023-11-19T21:59:33;99357.41;;;0.76;100.00
61697;BME280;47610;52.252;20.922;2023-11-19T22:04:36;99347.53;;;0.78;100.00
61697;BME280;47610;52.252;20.922;2023-11-19T22:09:39;99348.99;;;0.80;100.00
61697;BME280;47610;52.252;20.922;2023-11-19T22:14:42;99344.85;;;0.74;100.00
61697;BME280;47610;52.252;20.922;2023-11-19T22:19:45;99339.17;;;0.77;100.00
61697;BME280;47610;52.252;20.922;2023-11-19T22:24:49;99332.39;;;0.74;100.00
61697;BME280;47610;52.252;20.922;2023-11-19T22:29:52;99318.73;;;0.74;100.00
61697;BME280;47610;52.252;20.922;2023-11-19T22:34:55;99307.68;;;0.74;100.00
61697;BME280;47610;52.252;20.922;2023-11-19T22:39:58;99318.27;;;0.73;100.00
61697;BME280;47610;52.252;20.922;2023-11-19T22:45:01;99316.68;;;0.74;100.00
61697;BME280;47610;52.252;20.922;2023-11-19T22:50:05;99312.38;;;0.73;100.00
61697;BME280;47610;52.252;20.922;2023-11-19T22:55:09;99299.87;;;0.69;100.00
61697;BME280;47610;52.252;20.922;2023-11-19T23:00:16;99310.05;;;0.74;100.00
61697;BME280;47610;52.252;20.922;2023-11-19T23:05:19;99315.15;;;0.84;100.00
61697;BME280;47610;52.252;20.922;2023-11-19T23:10:22;99317.31;;;0.94;100.00
61697;BME280;47610;52.252;20.922;2023-11-19T23:15:25;99313.61;;;0.93;100.00
61697;BME280;47610;52.252;20.922;2023-11-19T23:20:28;99311.27;;;0.98;100.00
61697;BME280;47610;52.252;20.922;2023-11-19T23:25:31;99310.98;;;0.99;100.00
61697;BME280;47610;52.252;20.922;2023-11-19T23:30:35;99305.46;;;1.02;100.00
61697;BME280;47610;52.252;20.922;2023-11-19T23:35:38;99296.50;;;1.06;100.00
61697;BME280;47610;52.252;20.922;2023-11-19T23:40:41;99292.80;;;1.12;100.00
61697;BME280;47610;52.252;20.922;2023-11-19T23:45:44;99289.98;;;1.15;100.00
61697;BME280;47610;52.252;20.922;2023-11-19T23:50:47;99292.39;;;1.18;100.00
61697;BME280;47610;52.252;20.922;2023-11-19T23:55:50;99289.13;;;1.18;100.00
